createdAt,value
2023-04-22T00:00:57.787Z,999.5
2023-04-22T00:02:14.104Z,999.5
2023-04-22T00:03:30.368Z,999.5
2023-04-22T00:04:46.682Z,999.5
2023-04-22T00:06:02.955Z,999.5
2023-04-22T00:07:18.270Z,999.4
2023-04-22T00:08:34.569Z,999.4
2023-04-22T00:09:50.864Z,999.5
2023-04-22T00:11:07.167Z,999.4
2023-04-22T00:12:23.459Z,999.4
2023-04-22T00:13:39.750Z,999.4
2023-04-22T00:14:56.036Z,999.4
2023-04-22T00:16:11.350Z,999.4
2023-04-22T00:17:26.661Z,999.4
2023-04-22T00:18:41.981Z,999.4
2023-04-22T00:19:57.289Z,999.4
2023-04-22T00:21:13.599Z,999.3
2023-04-22T00:22:29.875Z,999.3
2023-04-22T00:23:46.167Z,999.3
2023-04-22T00:25:02.463Z,999.3
2023-04-22T00:26:18.775Z,999.3
2023-04-22T00:27:35.067Z,999.2
2023-04-22T00:28:51.363Z,999.2
2023-04-22T00:30:07.654Z,999.2
2023-04-22T00:31:23.952Z,999.2
2023-04-22T00:32:40.232Z,999.2
2023-04-22T00:33:56.540Z,999.2
2023-04-22T00:35:12.836Z,999.2
2023-04-22T00:36:28.135Z,999.2
2023-04-22T00:37:44.439Z,999.2
2023-04-22T00:38:59.752Z,999.2
2023-04-22T00:40:16.036Z,999.2
2023-04-22T00:41:32.325Z,999.2
2023-04-22T00:42:48.645Z,999.2
2023-04-22T00:44:04.930Z,999.2
2023-04-22T00:45:20.248Z,999.2
2023-04-22T00:46:35.541Z,999.2
2023-04-22T00:47:51.847Z,999.1
2023-04-22T00:49:08.134Z,999.1
2023-04-22T00:50:24.427Z,999.2
2023-04-22T00:51:40.733Z,999.2
2023-04-22T00:52:57.024Z,999.2
2023-04-22T00:54:13.324Z,999.1
2023-04-22T00:55:29.619Z,999.1
2023-04-22T00:56:45.915Z,999.1
2023-04-22T00:58:02.206Z,999.1
2023-04-22T00:59:18.487Z,999.1
2023-04-22T01:00:34.784Z,999.1
2023-04-22T01:01:51.076Z,999.2
2023-04-22T01:03:06.401Z,999.2
2023-04-22T01:04:22.693Z,999.1
2023-04-22T01:05:38.978Z,999.1
2023-04-22T01:06:55.286Z,999.1
2023-04-22T01:08:11.572Z,999.1
2023-04-22T01:09:27.868Z,999
2023-04-22T01:10:44.174Z,999.1
2023-04-22T01:11:59.498Z,999
2023-04-22T01:13:14.798Z,999
2023-04-22T01:14:30.097Z,999
2023-04-22T01:15:45.407Z,999
2023-04-22T01:17:01.719Z,999
2023-04-22T01:18:18.007Z,999
2023-04-22T01:19:34.291Z,999
2023-04-22T01:20:50.599Z,999
2023-04-22T01:22:06.894Z,999
2023-04-22T01:23:23.170Z,999
2023-04-22T01:24:39.468Z,999
2023-04-22T01:25:55.767Z,999
2023-04-22T01:27:12.058Z,999
2023-04-22T01:28:28.351Z,999
2023-04-22T01:29:44.648Z,999
2023-04-22T01:31:00.938Z,999
2023-04-22T01:32:16.259Z,998.9
2023-04-22T01:33:32.547Z,998.9
2023-04-22T01:34:48.848Z,998.9
2023-04-22T01:36:05.136Z,998.9
2023-04-22T01:37:21.432Z,998.9
2023-04-22T01:38:37.730Z,999
2023-04-22T01:39:54.034Z,998.9
2023-04-22T01:41:09.336Z,998.9
2023-04-22T01:42:24.651Z,998.9
2023-04-22T01:43:39.958Z,999
2023-04-22T01:44:55.269Z,998.9
2023-04-22T01:46:11.565Z,998.9
2023-04-22T01:47:27.860Z,998.9
2023-04-22T01:48:44.162Z,998.9
2023-04-22T01:50:00.464Z,998.9
2023-04-22T01:51:16.757Z,998.9
2023-04-22T01:52:33.046Z,998.9
2023-04-22T01:53:49.345Z,998.9
2023-04-22T01:55:05.639Z,998.9
2023-04-22T01:56:21.934Z,998.9
2023-04-22T01:57:38.224Z,998.9
2023-04-22T01:58:54.512Z,998.9
2023-04-22T02:00:10.818Z,998.9
2023-04-22T02:01:26.123Z,998.9
2023-04-22T02:06:31.239Z,998.8
2023-04-22T02:07:46.545Z,998.9
2023-04-22T02:09:01.855Z,998.9
2023-04-22T02:10:17.172Z,998.8
2023-04-22T02:11:32.500Z,998.9
2023-04-22T02:12:48.785Z,998.9
2023-04-22T02:14:04.109Z,998.9
2023-04-22T02:15:19.405Z,998.8
2023-04-22T02:16:35.710Z,998.8
2023-04-22T02:17:52.000Z,998.8
2023-04-22T02:19:08.287Z,998.8
2023-04-22T02:20:24.580Z,998.8
2023-04-22T02:21:40.890Z,998.8
2023-04-22T02:22:57.168Z,998.8
2023-04-22T02:24:13.473Z,998.8
2023-04-22T02:25:29.758Z,998.8
2023-04-22T02:26:46.069Z,998.8
2023-04-22T02:28:01.373Z,998.8
2023-04-22T02:29:16.686Z,998.7
2023-04-22T02:30:33.009Z,998.8
2023-04-22T02:31:49.270Z,998.8
2023-04-22T02:33:05.577Z,998.8
2023-04-22T02:34:21.862Z,998.7
2023-04-22T02:35:38.157Z,998.7
2023-04-22T02:36:54.452Z,998.8
2023-04-22T02:38:10.746Z,998.7
2023-04-22T02:39:27.047Z,998.7
2023-04-22T02:40:43.335Z,998.7
2023-04-22T02:41:59.639Z,998.7
2023-04-22T02:43:15.952Z,998.7
2023-04-22T02:44:32.229Z,998.7
2023-04-22T02:45:47.524Z,998.7
2023-04-22T02:47:03.835Z,998.7
2023-04-22T02:48:20.113Z,998.7
2023-04-22T02:49:36.414Z,998.7
2023-04-22T02:50:52.707Z,998.7
2023-04-22T02:52:09.008Z,998.7
2023-04-22T02:53:25.307Z,998.7
2023-04-22T02:54:40.620Z,998.7
2023-04-22T02:55:55.921Z,998.6
2023-04-22T02:57:12.230Z,998.7
2023-04-22T02:58:28.522Z,998.6
2023-04-22T02:59:44.813Z,998.6
2023-04-22T03:01:01.104Z,998.6
2023-04-22T03:02:17.403Z,998.6
2023-04-22T03:03:33.702Z,998.6
2023-04-22T03:04:49.981Z,998.6
2023-04-22T03:06:06.277Z,998.6
2023-04-22T03:07:22.572Z,998.6
2023-04-22T03:08:38.874Z,998.6
2023-04-22T03:09:55.161Z,998.6
2023-04-22T03:11:11.454Z,998.5
2023-04-22T03:12:26.777Z,998.5
2023-04-22T03:13:43.062Z,998.6
2023-04-22T03:14:59.360Z,998.5
2023-04-22T03:16:15.648Z,998.6
2023-04-22T03:17:31.942Z,998.5
2023-04-22T03:18:48.243Z,998.5
2023-04-22T03:20:04.544Z,998.5
2023-04-22T03:21:19.855Z,998.5
2023-04-22T03:22:35.173Z,998.5
2023-04-22T03:23:51.461Z,998.6
2023-04-22T03:25:07.751Z,998.6
2023-04-22T03:26:24.051Z,998.5
2023-04-22T03:27:40.349Z,998.6
2023-04-22T03:28:56.645Z,998.6
2023-04-22T03:30:12.891Z,998.6
2023-04-22T03:31:29.132Z,998.5
2023-04-22T03:32:45.424Z,998.5
2023-04-22T03:34:01.725Z,998.5
2023-04-22T03:35:17.980Z,998.5
2023-04-22T03:36:34.258Z,998.6
2023-04-22T03:37:50.554Z,998.6
2023-04-22T03:39:05.869Z,998.6
2023-04-22T03:40:22.167Z,998.6
2023-04-22T03:41:38.470Z,998.6
2023-04-22T03:42:54.750Z,998.6
2023-04-22T03:44:10.999Z,998.6
2023-04-22T03:45:27.278Z,998.6
2023-04-22T03:46:43.499Z,998.6
2023-04-22T03:47:58.744Z,998.6
2023-04-22T03:49:14.017Z,998.6
2023-04-22T03:50:29.281Z,998.7
2023-04-22T03:51:44.537Z,998.6
2023-04-22T03:52:59.796Z,998.6
2023-04-22T03:54:15.036Z,998.7
2023-04-22T03:55:31.283Z,998.6
2023-04-22T03:56:47.553Z,998.6
2023-04-22T03:58:03.772Z,998.6
2023-04-22T03:59:20.001Z,998.6
2023-04-22T04:00:36.244Z,998.5
2023-04-22T04:01:52.483Z,998.5
2023-04-22T04:03:08.733Z,998.5
2023-04-22T04:04:24.973Z,998.5
2023-04-22T04:05:41.219Z,998.5
2023-04-22T04:06:57.441Z,998.6
2023-04-22T04:08:13.694Z,998.6
2023-04-22T04:09:29.930Z,998.6
2023-04-22T04:10:45.180Z,998.6
2023-04-22T04:12:01.434Z,998.5
2023-04-22T04:13:17.668Z,998.6
2023-04-22T04:14:33.898Z,998.5
2023-04-22T04:15:50.147Z,998.5
2023-04-22T04:17:06.388Z,998.5
2023-04-22T04:18:22.630Z,998.5
2023-04-22T04:19:37.887Z,998.5
2023-04-22T04:20:53.154Z,998.5
2023-04-22T04:22:08.405Z,998.5
2023-04-22T04:23:23.663Z,998.5
2023-04-22T04:24:39.909Z,998.5
2023-04-22T04:25:56.138Z,998.5
2023-04-22T04:27:12.399Z,998.5
2023-04-22T04:28:28.633Z,998.5
2023-04-22T04:29:44.898Z,998.4
2023-04-22T04:31:01.106Z,998.4
2023-04-22T04:32:17.387Z,998.5
2023-04-22T04:33:33.584Z,998.5
2023-04-22T04:34:49.859Z,998.5
2023-04-22T04:36:06.075Z,998.5
2023-04-22T04:37:22.322Z,998.5
2023-04-22T04:38:38.543Z,998.5
2023-04-22T04:39:53.811Z,998.5
2023-04-22T04:41:10.053Z,998.5
2023-04-22T04:42:26.295Z,998.5
2023-04-22T04:43:42.539Z,998.5
2023-04-22T04:44:58.772Z,998.5
2023-04-22T04:46:15.016Z,998.6
2023-04-22T04:47:31.251Z,998.6
2023-04-22T04:48:46.525Z,998.6
2023-04-22T04:50:01.773Z,998.6
2023-04-22T04:51:18.003Z,998.6
2023-04-22T04:52:34.242Z,998.6
2023-04-22T04:53:49.515Z,998.6
2023-04-22T04:55:05.761Z,998.6
2023-04-22T04:56:21.993Z,998.6
2023-04-22T04:57:38.241Z,998.6
2023-04-22T04:58:54.469Z,998.7
2023-04-22T05:00:10.719Z,998.7
2023-04-22T05:01:26.968Z,998.7
2023-04-22T05:02:43.207Z,998.7
2023-04-22T05:03:59.447Z,998.6
2023-04-22T05:05:15.673Z,998.7
2023-04-22T05:06:31.914Z,998.7
2023-04-22T05:07:48.184Z,998.7
2023-04-22T05:09:04.394Z,998.6
2023-04-22T05:10:19.650Z,998.7
2023-04-22T05:11:35.898Z,998.7
2023-04-22T05:12:52.130Z,998.7
2023-04-22T05:14:08.387Z,998.7
2023-04-22T05:15:23.633Z,998.7
2023-04-22T05:16:38.890Z,998.8
2023-04-22T05:17:55.138Z,998.8
2023-04-22T05:19:11.374Z,998.8
2023-04-22T05:20:27.619Z,998.8
2023-04-22T05:21:43.859Z,998.8
2023-04-22T05:23:00.108Z,998.8
2023-04-22T05:24:16.337Z,998.8
2023-04-22T05:25:32.576Z,998.8
2023-04-22T05:26:48.819Z,998.8
2023-04-22T05:28:05.055Z,998.7
2023-04-22T05:29:21.305Z,998.8
2023-04-22T05:30:37.546Z,998.7
2023-04-22T05:31:53.777Z,998.8
2023-04-22T05:33:09.035Z,998.8
2023-04-22T05:34:25.281Z,998.8
2023-04-22T05:35:41.521Z,998.8
2023-04-22T05:36:57.788Z,998.8
2023-04-22T05:38:13.996Z,998.8
2023-04-22T05:39:30.247Z,998.8
2023-04-22T05:40:46.478Z,998.8
2023-04-22T05:42:01.740Z,998.8
2023-04-22T05:43:17.001Z,998.8
2023-04-22T05:44:32.270Z,998.8
2023-04-22T05:45:47.514Z,998.8
2023-04-22T05:47:02.793Z,998.8
2023-04-22T05:48:18.041Z,998.9
2023-04-22T05:49:33.291Z,998.8
2023-04-22T05:50:48.547Z,998.9
2023-04-22T05:52:04.790Z,998.9
2023-04-22T05:53:21.026Z,998.9
2023-04-22T05:54:37.307Z,998.9
2023-04-22T05:55:53.524Z,998.8
2023-04-22T05:57:09.749Z,998.8
2023-04-22T05:58:25.991Z,998.8
2023-04-22T05:59:42.245Z,998.8
2023-04-22T06:00:58.470Z,998.8
2023-04-22T06:02:14.713Z,998.8
2023-04-22T06:03:30.969Z,998.8
2023-04-22T06:04:47.203Z,998.8
2023-04-22T06:06:03.446Z,998.8
2023-04-22T06:07:18.698Z,998.8
2023-04-22T06:08:34.947Z,998.8
2023-04-22T06:09:51.172Z,998.8
2023-04-22T06:11:07.420Z,998.8
2023-04-22T06:12:23.667Z,998.8
2023-04-22T06:13:39.908Z,998.8
2023-04-22T06:14:56.145Z,998.9
2023-04-22T06:16:11.410Z,998.9
2023-04-22T06:17:26.665Z,998.9
2023-04-22T06:18:41.924Z,998.9
2023-04-22T06:19:57.169Z,998.9
2023-04-22T06:21:13.408Z,998.9
2023-04-22T06:22:29.664Z,998.9
2023-04-22T06:23:45.890Z,998.9
2023-04-22T06:25:02.164Z,998.9
2023-04-22T06:26:18.386Z,998.9
2023-04-22T06:27:34.627Z,998.9
2023-04-22T06:28:50.862Z,998.9
2023-04-22T06:30:07.105Z,998.9
2023-04-22T06:31:23.332Z,998.9
2023-04-22T06:32:39.591Z,998.9
2023-04-22T06:33:55.827Z,998.9
2023-04-22T06:35:12.050Z,998.9
2023-04-22T06:36:27.338Z,998.9
2023-04-22T06:37:43.564Z,998.9
2023-04-22T06:38:59.789Z,998.9
2023-04-22T06:40:16.042Z,998.9
2023-04-22T06:41:32.271Z,998.9
2023-04-22T06:42:48.518Z,998.9
2023-04-22T06:44:04.767Z,998.9
2023-04-22T06:45:20.023Z,998.8
2023-04-22T06:46:35.286Z,998.8
2023-04-22T06:47:50.541Z,998.8
2023-04-22T06:49:05.801Z,998.8
2023-04-22T06:50:21.060Z,998.8
2023-04-22T06:51:36.307Z,998.8
2023-04-22T06:52:52.558Z,998.8
2023-04-22T06:54:08.788Z,998.8
2023-04-22T06:55:25.024Z,998.8
2023-04-22T06:56:41.279Z,998.8
2023-04-22T06:57:57.521Z,998.8
2023-04-22T06:59:13.765Z,998.8
2023-04-22T07:00:30.005Z,998.8
2023-04-22T07:01:46.260Z,998.8
2023-04-22T07:03:02.469Z,998.8
2023-04-22T07:04:18.721Z,998.9
2023-04-22T07:05:34.959Z,998.8
2023-04-22T07:06:51.201Z,998.8
2023-04-22T07:08:06.445Z,998.8
2023-04-22T07:09:22.685Z,998.8
2023-04-22T07:10:38.942Z,998.8
2023-04-22T07:11:55.183Z,998.9
2023-04-22T07:13:11.420Z,998.7
2023-04-22T07:14:27.651Z,998.7
2023-04-22T07:15:43.893Z,998.8
2023-04-22T07:16:59.151Z,998.7
2023-04-22T07:18:14.409Z,998.7
2023-04-22T07:19:30.654Z,998.7
2023-04-22T07:20:46.897Z,998.7
2023-04-22T07:22:03.138Z,998.7
2023-04-22T07:23:19.370Z,998.6
2023-04-22T07:24:35.611Z,998.7
2023-04-22T07:25:51.849Z,998.7
2023-04-22T07:27:08.090Z,998.6
2023-04-22T07:28:23.356Z,998.6
2023-04-22T07:29:38.617Z,998.6
2023-04-22T07:30:54.848Z,998.6
2023-04-22T07:32:11.097Z,998.6
2023-04-22T07:33:27.332Z,998.7
2023-04-22T07:34:43.576Z,998.6
2023-04-22T07:35:59.812Z,998.7
2023-04-22T07:37:16.054Z,998.7
2023-04-22T07:38:32.288Z,998.7
2023-04-22T07:39:48.540Z,998.7
2023-04-22T07:41:04.788Z,998.7
2023-04-22T07:42:21.018Z,998.7
2023-04-22T07:43:37.252Z,998.7
2023-04-22T07:44:53.532Z,998.7
2023-04-22T07:46:08.747Z,998.7
2023-04-22T07:47:24.992Z,998.7
2023-04-22T07:48:41.242Z,998.6
2023-04-22T07:49:57.478Z,998.6
2023-04-22T07:51:13.716Z,998.6
2023-04-22T07:52:29.968Z,998.6
2023-04-22T07:53:46.199Z,998.6
2023-04-22T07:55:01.461Z,998.6
2023-04-22T07:56:16.720Z,998.6
2023-04-22T07:57:31.974Z,998.5
2023-04-22T07:58:47.229Z,998.5
2023-04-22T08:00:03.464Z,998.5
2023-04-22T08:01:19.723Z,998.5
2023-04-22T08:02:35.964Z,998.5
2023-04-22T08:03:52.197Z,998.5
2023-04-22T08:05:08.433Z,998.5
2023-04-22T08:06:24.667Z,998.5
2023-04-22T08:07:40.921Z,998.5
2023-04-22T08:08:57.153Z,998.5
2023-04-22T08:10:13.406Z,998.5
2023-04-22T08:11:29.645Z,998.5
2023-04-22T08:12:45.878Z,998.5
2023-04-22T08:14:02.125Z,998.4
2023-04-22T08:15:17.372Z,998.5
2023-04-22T08:16:33.624Z,998.5
2023-04-22T08:17:49.856Z,998.5
2023-04-22T08:19:06.100Z,998.4
2023-04-22T08:20:22.325Z,998.4
2023-04-22T08:21:38.564Z,998.4
2023-04-22T08:22:54.805Z,998.4
2023-04-22T08:24:10.085Z,998.4
2023-04-22T08:25:25.339Z,998.4
2023-04-22T08:26:41.578Z,998.4
2023-04-22T08:27:57.817Z,998.4
2023-04-22T08:29:14.059Z,998.4
2023-04-22T08:30:30.284Z,998.4
2023-04-22T08:31:46.533Z,998.4
2023-04-22T08:33:02.764Z,998.4
2023-04-22T08:34:19.003Z,998.4
2023-04-22T08:35:35.260Z,998.4
2023-04-22T08:36:51.497Z,998.4
2023-04-22T08:38:07.753Z,998.4
2023-04-22T08:39:23.978Z,998.4
2023-04-22T08:40:40.208Z,998.4
2023-04-22T08:41:55.475Z,998.4
2023-04-22T08:43:11.716Z,998.4
2023-04-22T08:44:27.950Z,998.4
2023-04-22T08:45:44.189Z,998.3
2023-04-22T08:47:00.441Z,998.3
2023-04-22T08:48:16.677Z,998.4
2023-04-22T08:49:32.911Z,998.3
2023-04-22T08:50:49.142Z,998.3
2023-04-22T08:52:05.389Z,998.3
2023-04-22T08:53:21.621Z,998.3
2023-04-22T08:54:37.879Z,998.3
2023-04-22T08:55:54.120Z,998.3
2023-04-22T08:57:10.344Z,998.3
2023-04-22T08:58:25.638Z,998.3
2023-04-22T08:59:41.845Z,998.3
2023-04-22T09:00:58.078Z,998.3
2023-04-22T09:02:14.322Z,998.3
2023-04-22T09:03:30.573Z,998.2
2023-04-22T09:04:46.798Z,998.2
2023-04-22T09:06:03.049Z,998.3
2023-04-22T09:07:19.285Z,998.2
2023-04-22T09:08:34.540Z,998.2
2023-04-22T09:09:50.779Z,998.2
2023-04-22T09:11:07.038Z,998.2
2023-04-22T09:12:23.276Z,998.1
2023-04-22T09:13:39.510Z,998.2
2023-04-22T09:14:55.742Z,998.2
2023-04-22T09:16:11.989Z,998.1
2023-04-22T09:17:28.228Z,998.1
2023-04-22T09:18:44.483Z,998.1
2023-04-22T09:20:00.711Z,998.1
2023-04-22T09:21:16.945Z,998.1
2023-04-22T09:22:33.200Z,998.1
2023-04-22T09:23:49.426Z,998
2023-04-22T09:25:04.678Z,998
2023-04-22T09:26:20.938Z,998
2023-04-22T09:27:37.172Z,998
2023-04-22T09:28:53.400Z,998
2023-04-22T09:30:09.656Z,998
2023-04-22T09:31:25.891Z,998
2023-04-22T09:32:42.130Z,997.9
2023-04-22T09:33:58.362Z,998
2023-04-22T09:35:14.602Z,997.9
2023-04-22T09:36:30.850Z,997.9
2023-04-22T09:37:47.099Z,997.9
2023-04-22T09:39:03.328Z,997.9
2023-04-22T09:40:19.570Z,997.9
2023-04-22T09:41:34.822Z,997.9
2023-04-22T09:42:51.063Z,997.9
2023-04-22T09:44:07.311Z,997.9
2023-04-22T09:45:23.538Z,997.9
2023-04-22T09:46:39.797Z,997.9
2023-04-22T09:47:56.031Z,997.8
2023-04-22T09:49:12.260Z,997.9
2023-04-22T09:50:28.501Z,997.8
2023-04-22T09:51:44.751Z,997.8
2023-04-22T09:53:00.988Z,997.8
2023-04-22T09:54:17.266Z,997.8
2023-04-22T09:55:33.467Z,997.8
2023-04-22T09:56:49.714Z,997.8
2023-04-22T09:59:21.206Z,997.7
2023-04-22T10:00:37.451Z,997.8
2023-04-22T10:01:53.693Z,997.8
2023-04-22T10:03:09.933Z,997.7
2023-04-22T10:04:26.000Z,997.8
2023-04-22T10:05:42.418Z,997.8
2023-04-22T10:06:58.650Z,997.8
2023-04-22T10:08:14.883Z,997.7
2023-04-22T10:09:31.120Z,997.8
2023-04-22T10:10:47.369Z,997.8
2023-04-22T10:12:03.607Z,997.7
2023-04-22T10:13:19.849Z,997.8
2023-04-22T10:14:35.106Z,997.7
2023-04-22T10:15:51.345Z,997.7
2023-04-22T10:17:07.581Z,997.7
2023-04-22T10:18:23.829Z,997.7
2023-04-22T10:19:40.074Z,997.7
2023-04-22T10:20:56.310Z,997.7
2023-04-22T10:22:12.566Z,997.6
2023-04-22T10:23:28.795Z,997.7
2023-04-22T10:24:45.027Z,997.7
2023-04-22T10:26:01.269Z,997.7
2023-04-22T10:27:17.512Z,997.6
2023-04-22T10:28:33.740Z,997.6
2023-04-22T10:29:49.991Z,997.6
2023-04-22T10:31:05.243Z,997.6
2023-04-22T10:32:21.493Z,997.6
2023-04-22T10:33:37.724Z,997.5
2023-04-22T10:34:53.959Z,997.5
2023-04-22T10:36:10.197Z,997.5
2023-04-22T10:37:26.439Z,997.5
2023-04-22T10:38:42.675Z,997.5
2023-04-22T10:39:58.934Z,997.6
2023-04-22T10:41:15.190Z,997.6
2023-04-22T10:42:31.415Z,997.6
2023-04-22T10:43:47.644Z,997.6
2023-04-22T10:45:03.883Z,997.5
2023-04-22T10:46:20.117Z,997.5
2023-04-22T10:47:35.375Z,997.5
2023-04-22T10:48:51.614Z,997.5
2023-04-22T10:50:07.875Z,997.5
2023-04-22T10:51:24.100Z,997.4
2023-04-22T10:52:40.336Z,997.4
2023-04-22T10:53:56.592Z,997.4
2023-04-22T10:55:12.816Z,997.4
2023-04-22T10:56:29.073Z,997.4
2023-04-22T10:57:45.311Z,997.4
2023-04-22T10:59:01.538Z,997.4
2023-04-22T11:00:17.791Z,997.4
2023-04-22T11:01:34.031Z,997.3
2023-04-22T11:02:50.270Z,997.3
2023-04-22T11:04:05.518Z,997.3
2023-04-22T11:05:21.760Z,997.3
2023-04-22T11:06:38.013Z,997.2
2023-04-22T11:07:54.238Z,997.1
2023-04-22T11:09:10.478Z,997.1
2023-04-22T11:10:26.743Z,997.1
2023-04-22T11:11:42.968Z,997.1
2023-04-22T11:12:59.215Z,997.2
2023-04-22T11:14:15.451Z,997.2
2023-04-22T11:15:31.690Z,997.2
2023-04-22T11:16:47.925Z,997.2
2023-04-22T11:18:04.158Z,997.2
2023-04-22T11:19:20.403Z,997.2
2023-04-22T11:20:35.668Z,997.2
2023-04-22T11:21:51.912Z,997.1
2023-04-22T11:23:08.143Z,997
2023-04-22T11:24:24.384Z,997.1
2023-04-22T11:25:40.632Z,997.1
2023-04-22T11:26:56.865Z,997.1
2023-04-22T11:28:13.114Z,997.1
2023-04-22T11:29:29.350Z,997.1
2023-04-22T11:30:45.580Z,997.1
2023-04-22T11:32:01.820Z,997.1
2023-04-22T11:33:18.058Z,997.1
2023-04-22T11:34:34.302Z,997
2023-04-22T11:35:50.545Z,997.1
2023-04-22T11:37:05.809Z,997
2023-04-22T11:38:22.041Z,997
2023-04-22T11:39:38.275Z,997
2023-04-22T11:40:54.515Z,997
2023-04-22T11:42:10.756Z,997
2023-04-22T11:43:27.008Z,997
2023-04-22T11:44:43.243Z,996.9
2023-04-22T11:45:59.489Z,996.9
2023-04-22T11:47:15.733Z,996.9
2023-04-22T11:48:31.961Z,996.9
2023-04-22T11:49:48.198Z,996.9
2023-04-22T11:51:04.439Z,996.9
2023-04-22T11:52:20.683Z,996.8
2023-04-22T11:53:35.940Z,996.9
2023-04-22T11:54:52.189Z,996.9
2023-04-22T11:56:08.421Z,996.9
2023-04-22T11:57:24.659Z,996.9
2023-04-22T11:58:40.000Z,996.8
2023-04-22T11:59:57.133Z,996.8
2023-04-22T12:01:13.374Z,996.8
2023-04-22T12:02:29.615Z,996.9
2023-04-22T12:03:45.854Z,996.8
2023-04-22T12:05:02.102Z,996.9
2023-04-22T12:06:18.336Z,996.9
2023-04-22T12:07:34.579Z,996.9
2023-04-22T12:08:50.832Z,996.9
2023-04-22T12:10:06.080Z,996.8
2023-04-22T12:12:38.571Z,996.9
2023-04-22T12:13:54.824Z,996.8
2023-04-22T12:15:11.034Z,996.8
2023-04-22T12:16:27.323Z,996.8
2023-04-22T12:17:43.516Z,996.8
2023-04-22T12:18:59.756Z,996.8
2023-04-22T12:20:15.999Z,996.7
2023-04-22T12:21:32.265Z,996.7
2023-04-22T12:22:48.493Z,996.8
2023-04-22T12:24:04.731Z,996.8
2023-04-22T12:25:20.971Z,996.8
2023-04-22T12:26:36.230Z,996.8
2023-04-22T12:27:52.455Z,996.7
2023-04-22T12:29:08.708Z,996.7
2023-04-22T12:30:24.950Z,996.7
2023-04-22T12:31:41.177Z,996.6
2023-04-22T12:32:57.431Z,996.6
2023-04-22T12:34:13.666Z,996.7
2023-04-22T12:35:29.901Z,996.6
2023-04-22T12:36:46.146Z,996.6
2023-04-22T12:38:02.421Z,996.6
2023-04-22T12:39:18.620Z,996.7
2023-04-22T12:40:34.877Z,996.6
2023-04-22T12:41:51.111Z,996.5
2023-04-22T12:43:06.365Z,996.6
2023-04-22T12:44:22.605Z,996.6
2023-04-22T12:45:38.837Z,996.6
2023-04-22T12:46:55.090Z,996.5
2023-04-22T12:48:11.326Z,996.6
2023-04-22T12:49:27.558Z,996.6
2023-04-22T12:50:43.800Z,996.6
2023-04-22T12:52:00.058Z,996.6
2023-04-22T12:53:16.284Z,996.5
2023-04-22T12:54:32.522Z,996.5
2023-04-22T12:55:48.762Z,996.4
2023-04-22T12:57:05.001Z,996.4
2023-04-22T12:58:21.257Z,996.4
2023-04-22T12:59:36.503Z,996.4
2023-04-22T13:00:52.754Z,996.4
2023-04-22T13:02:08.988Z,996.4
2023-04-22T13:03:25.216Z,996.3
2023-04-22T13:04:41.461Z,996.3
2023-04-22T13:05:57.703Z,996.3
2023-04-22T13:07:13.938Z,996.4
2023-04-22T13:08:30.186Z,996.3
2023-04-22T13:09:46.433Z,996.3
2023-04-22T13:11:02.661Z,996.3
2023-04-22T13:12:18.909Z,996.3
2023-04-22T13:13:35.177Z,996.3
2023-04-22T13:14:51.396Z,996.3
2023-04-22T13:16:06.684Z,996.2
2023-04-22T13:17:22.888Z,996.3
2023-04-22T13:18:39.119Z,996.3
2023-04-22T13:19:55.357Z,996.3
2023-04-22T13:21:11.600Z,996.2
2023-04-22T13:22:27.880Z,996.3
2023-04-22T13:23:43.116Z,996.2
2023-04-22T13:24:59.344Z,996.2
2023-04-22T13:26:15.590Z,996.2
2023-04-22T13:27:31.818Z,996.2
2023-04-22T13:28:48.059Z,996.1
2023-04-22T13:30:04.318Z,996.2
2023-04-22T13:31:20.547Z,996.2
2023-04-22T13:32:36.786Z,996.2
2023-04-22T13:33:53.030Z,996.2
2023-04-22T13:35:09.280Z,996.1
2023-04-22T13:36:25.500Z,996.1
2023-04-22T13:37:41.753Z,996.1
2023-04-22T13:38:57.996Z,996
2023-04-22T13:40:13.247Z,996
2023-04-22T13:41:29.493Z,996
2023-04-22T13:42:45.729Z,996
2023-04-22T13:44:01.978Z,996
2023-04-22T13:45:18.253Z,995.9
2023-04-22T13:46:34.448Z,996
2023-04-22T13:47:50.690Z,996
2023-04-22T13:49:06.937Z,996
2023-04-22T13:50:23.177Z,996
2023-04-22T13:51:39.414Z,996
2023-04-22T13:52:55.646Z,995.9
2023-04-22T13:54:11.881Z,995.8
2023-04-22T13:55:28.138Z,995.8
2023-04-22T13:56:43.395Z,995.8
2023-04-22T13:57:59.618Z,995.8
2023-04-22T13:59:15.866Z,995.8
2023-04-22T14:00:32.137Z,995.7
2023-04-22T14:01:48.346Z,995.7
2023-04-22T14:03:04.590Z,995.7
2023-04-22T14:04:20.835Z,995.8
2023-04-22T14:05:37.069Z,995.7
2023-04-22T14:06:53.317Z,995.7
2023-04-22T14:08:09.554Z,995.6
2023-04-22T14:09:25.794Z,995.6
2023-04-22T14:10:42.039Z,995.7
2023-04-22T14:11:58.276Z,995.6
2023-04-22T14:13:13.531Z,995.6
2023-04-22T14:14:29.766Z,995.6
2023-04-22T14:15:46.015Z,995.6
2023-04-22T14:17:02.238Z,995.5
2023-04-22T14:18:18.497Z,995.5
2023-04-22T14:19:34.734Z,995.5
2023-04-22T14:20:50.971Z,995.5
2023-04-22T14:22:07.212Z,995.4
2023-04-22T14:23:23.449Z,995.5
2023-04-22T14:24:39.691Z,995.5
2023-04-22T14:25:55.923Z,995.4
2023-04-22T14:27:12.172Z,995.4
2023-04-22T14:28:28.406Z,995.5
2023-04-22T14:29:43.665Z,995.4
2023-04-22T14:30:59.905Z,995.4
2023-04-22T14:32:16.149Z,995.4
2023-04-22T14:33:32.375Z,995.3
2023-04-22T14:34:48.636Z,995.3
2023-04-22T14:36:04.861Z,995.3
2023-04-22T14:37:21.104Z,995.4
2023-04-22T14:38:37.338Z,995.3
2023-04-22T14:39:53.590Z,995.3
2023-04-22T14:41:09.865Z,995.3
2023-04-22T14:42:26.062Z,995.3
2023-04-22T14:43:42.298Z,995.3
2023-04-22T14:44:58.557Z,995.3
2023-04-22T14:46:13.807Z,995.3
2023-04-22T14:47:30.045Z,995.2
2023-04-22T14:48:46.281Z,995.2
2023-04-22T14:50:02.534Z,995.3
2023-04-22T14:51:18.768Z,995.2
2023-04-22T14:52:34.000Z,995.2
2023-04-22T14:53:51.241Z,995.2
2023-04-22T14:55:07.482Z,995.2
2023-04-22T14:56:23.734Z,995.2
2023-04-22T14:57:39.975Z,995.2
2023-04-22T14:58:56.203Z,995.2
2023-04-22T15:00:12.438Z,995.2
2023-04-22T15:01:28.698Z,995.2
2023-04-22T15:02:43.948Z,995.2
2023-04-22T15:04:00.184Z,995.1
2023-04-22T15:05:16.426Z,995.1
2023-04-22T15:06:32.672Z,995.1
2023-04-22T15:07:48.906Z,995
2023-04-22T15:09:05.152Z,995
2023-04-22T15:10:21.391Z,995
2023-04-22T15:11:37.667Z,995.1
2023-04-22T15:12:53.862Z,995
2023-04-22T15:14:10.109Z,995
2023-04-22T15:15:26.350Z,995
2023-04-22T15:16:42.587Z,995
2023-04-22T15:17:58.818Z,995
2023-04-22T15:19:14.089Z,995
2023-04-22T15:20:30.318Z,995
2023-04-22T15:21:46.563Z,995
2023-04-22T15:23:02.795Z,995
2023-04-22T15:24:19.045Z,995
2023-04-22T15:25:35.288Z,995
2023-04-22T15:26:51.530Z,995
2023-04-22T15:28:07.769Z,995
2023-04-22T15:29:24.002Z,995
2023-04-22T15:30:40.247Z,994.9
2023-04-22T15:31:56.494Z,994.9
2023-04-22T15:33:12.724Z,994.9
2023-04-22T15:34:28.962Z,994.9
2023-04-22T15:35:44.213Z,994.9
2023-04-22T15:37:00.462Z,994.9
2023-04-22T15:38:16.713Z,994.9
2023-04-22T15:39:32.937Z,994.9
2023-04-22T15:40:49.182Z,994.9
2023-04-22T15:42:05.415Z,994.9
2023-04-22T15:43:21.667Z,994.9
2023-04-22T15:44:37.899Z,995
2023-04-22T15:45:54.138Z,994.9
2023-04-22T15:47:10.388Z,995
2023-04-22T15:48:26.620Z,994.9
2023-04-22T15:49:42.864Z,994.9
2023-04-22T15:50:59.107Z,994.9
2023-04-22T15:52:14.352Z,994.9
2023-04-22T15:53:30.600Z,994.9
2023-04-22T15:54:46.846Z,994.8
2023-04-22T15:56:03.073Z,994.8
2023-04-22T15:57:19.329Z,994.8
2023-04-22T15:58:35.552Z,994.8
2023-04-22T15:59:51.792Z,994.8
2023-04-22T16:01:08.038Z,994.8
2023-04-22T16:02:24.279Z,994.8
2023-04-22T16:03:40.534Z,994.8
2023-04-22T16:04:56.768Z,994.8
2023-04-22T16:06:12.998Z,994.7
2023-04-22T16:07:29.239Z,994.8
2023-04-22T16:08:44.491Z,994.8
2023-04-22T16:10:00.747Z,994.8
2023-04-22T16:11:16.981Z,994.7
2023-04-22T16:12:33.221Z,994.7
2023-04-22T16:13:49.503Z,994.7
2023-04-22T16:15:05.707Z,994.7
2023-04-22T16:16:21.947Z,994.7
2023-04-22T16:17:38.192Z,994.7
2023-04-22T16:18:54.418Z,994.7
2023-04-22T16:20:10.669Z,994.7
2023-04-22T16:21:26.909Z,994.7
2023-04-22T16:22:43.143Z,994.7
2023-04-22T16:23:59.391Z,994.7
2023-04-22T16:25:14.649Z,994.6
2023-04-22T16:26:30.873Z,994.7
2023-04-22T16:27:47.113Z,994.7
2023-04-22T16:29:03.356Z,994.7
2023-04-22T16:30:19.602Z,994.6
2023-04-22T16:31:35.830Z,994.6